sensor_id;sensor_type;location;lat;lon;timestamp;P1;durP1;ratioP1;P2;durP2;ratioP2
18290;SDS011;9271;48.590;8.866;2022-10-16T00:01:06;2.80;;;2.60;;
18290;SDS011;9271;48.590;8.866;2022-10-16T00:03:36;3.23;;;2.60;;
18290;SDS011;9271;48.590;8.866;2022-10-16T00:06:03;3.20;;;2.77;;
18290;SDS011;9271;48.590;8.866;2022-10-16T00:08:32;3.53;;;2.70;;
18290;SDS011;9271;48.590;8.866;2022-10-16T00:11:01;3.40;;;2.80;;
18290;SDS011;9271;48.590;8.866;2022-10-16T00:13:28;2.80;;;2.57;;
18290;SDS011;9271;48.590;8.866;2022-10-16T00:15:56;3.00;;;2.80;;
18290;SDS011;9271;48.590;8.866;2022-10-16T00:18:24;3.50;;;3.20;;
18290;SDS011;9271;48.590;8.866;2022-10-16T00:20:50;4.40;;;2.80;;
18290;SDS011;9271;48.590;8.866;2022-10-16T00:23:18;3.70;;;3.17;;
18290;SDS011;9271;48.590;8.866;2022-10-16T00:25:53;3.10;;;2.90;;
18290;SDS011;9271;48.590;8.866;2022-10-16T00:28:21;6.97;;;4.33;;
18290;SDS011;9271;48.590;8.866;2022-10-16T00:30:47;4.63;;;4.03;;
18290;SDS011;9271;48.590;8.866;2022-10-16T00:33:14;3.90;;;3.60;;
18290;SDS011;9271;48.590;8.866;2022-10-16T00:35:41;4.17;;;3.87;;
18290;SDS011;9271;48.590;8.866;2022-10-16T00:38:08;7.20;;;4.07;;
18290;SDS011;9271;48.590;8.866;2022-10-16T00:40:35;3.83;;;3.40;;
18290;SDS011;9271;48.590;8.866;2022-10-16T00:43:04;5.83;;;3.93;;
18290;SDS011;9271;48.590;8.866;2022-10-16T00:45:35;3.90;;;3.50;;
18290;SDS011;9271;48.590;8.866;2022-10-16T00:48:02;4.00;;;3.57;;
18290;SDS011;9271;48.590;8.866;2022-10-16T00:50:29;6.93;;;3.33;;
18290;SDS011;9271;48.590;8.866;2022-10-16T00:52:57;5.07;;;3.20;;
18290;SDS011;9271;48.590;8.866;2022-10-16T00:55:26;6.93;;;3.30;;
18290;SDS011;9271;48.590;8.866;2022-10-16T00:57:55;3.93;;;3.50;;
18290;SDS011;9271;48.590;8.866;2022-10-16T01:00:25;3.63;;;3.20;;
18290;SDS011;9271;48.590;8.866;2022-10-16T01:02:53;4.07;;;2.90;;
18290;SDS011;9271;48.590;8.866;2022-10-16T01:05:21;3.73;;;3.30;;
18290;SDS011;9271;48.590;8.866;2022-10-16T01:07:50;5.53;;;3.37;;
18290;SDS011;9271;48.590;8.866;2022-10-16T01:10:26;4.37;;;3.60;;
18290;SDS011;9271;48.590;8.866;2022-10-16T01:12:59;4.23;;;3.43;;
18290;SDS011;9271;48.590;8.866;2022-10-16T01:15:32;3.80;;;3.43;;
18290;SDS011;9271;48.590;8.866;2022-10-16T01:18:03;4.00;;;3.23;;
18290;SDS011;9271;48.590;8.866;2022-10-16T01:20:34;5.57;;;3.87;;
18290;SDS011;9271;48.590;8.866;2022-10-16T01:23:10;4.37;;;4.07;;
18290;SDS011;9271;48.590;8.866;2022-10-16T01:26:04;3.93;;;3.53;;
18290;SDS011;9271;48.590;8.866;2022-10-16T01:28:47;6.77;;;3.60;;
18290;SDS011;9271;48.590;8.866;2022-10-16T01:31:19;3.47;;;3.27;;
18290;SDS011;9271;48.590;8.866;2022-10-16T01:33:51;3.30;;;3.00;;
18290;SDS011;9271;48.590;8.866;2022-10-16T01:36:25;3.77;;;3.13;;
18290;SDS011;9271;48.590;8.866;2022-10-16T01:38:57;3.47;;;3.17;;
18290;SDS011;9271;48.590;8.866;2022-10-16T01:41:27;3.50;;;3.20;;
18290;SDS011;9271;48.590;8.866;2022-10-16T01:44:01;4.17;;;3.10;;
18290;SDS011;9271;48.590;8.866;2022-10-16T01:46:30;3.00;;;2.80;;
18290;SDS011;9271;48.590;8.866;2022-10-16T01:48:59;2.97;;;2.40;;
18290;SDS011;9271;48.590;8.866;2022-10-16T01:51:28;3.43;;;3.13;;
18290;SDS011;9271;48.590;8.866;2022-10-16T01:53:56;3.40;;;3.13;;
18290;SDS011;9271;48.590;8.866;2022-10-16T01:56:26;3.30;;;3.00;;
18290;SDS011;9271;48.590;8.866;2022-10-16T01:58:55;4.43;;;3.20;;
18290;SDS011;9271;48.590;8.866;2022-10-16T02:01:29;3.27;;;3.00;;
18290;SDS011;9271;48.590;8.866;2022-10-16T02:03:59;4.53;;;2.77;;
18290;SDS011;9271;48.590;8.866;2022-10-16T02:06:30;3.27;;;2.63;;
18290;SDS011;9271;48.590;8.866;2022-10-16T02:08:58;3.87;;;2.73;;
18290;SDS011;9271;48.590;8.866;2022-10-16T02:11:25;2.93;;;2.43;;
18290;SDS011;9271;48.590;8.866;2022-10-16T02:13:53;2.93;;;2.70;;
18290;SDS011;9271;48.590;8.866;2022-10-16T02:16:32;4.53;;;2.47;;
18290;SDS011;9271;48.590;8.866;2022-10-16T02:19:01;2.77;;;2.57;;
18290;SDS011;9271;48.590;8.866;2022-10-16T02:21:29;2.80;;;2.40;;
18290;SDS011;9271;48.590;8.866;2022-10-16T02:24:04;3.60;;;2.70;;
18290;SDS011;9271;48.590;8.866;2022-10-16T02:26:35;4.17;;;2.60;;
18290;SDS011;9271;48.590;8.866;2022-10-16T02:29:07;3.10;;;2.70;;
18290;SDS011;9271;48.590;8.866;2022-10-16T02:31:41;3.13;;;2.60;;
18290;SDS011;9271;48.590;8.866;2022-10-16T02:34:13;2.43;;;2.30;;
18290;SDS011;9271;48.590;8.866;2022-10-16T02:36:42;3.37;;;2.50;;
18290;SDS011;9271;48.590;8.866;2022-10-16T02:39:10;3.60;;;2.90;;
18290;SDS011;9271;48.590;8.866;2022-10-16T02:41:37;4.07;;;2.47;;
18290;SDS011;9271;48.590;8.866;2022-10-16T02:44:04;3.30;;;2.20;;
18290;SDS011;9271;48.590;8.866;2022-10-16T02:46:31;2.67;;;2.43;;
18290;SDS011;9271;48.590;8.866;2022-10-16T02:48:59;3.30;;;2.50;;
18290;SDS011;9271;48.590;8.866;2022-10-16T02:51:26;2.60;;;2.40;;
18290;SDS011;9271;48.590;8.866;2022-10-16T02:53:53;3.43;;;2.47;;
18290;SDS011;9271;48.590;8.866;2022-10-16T02:56:19;2.90;;;2.30;;
18290;SDS011;9271;48.590;8.866;2022-10-16T02:58:46;2.30;;;2.10;;
18290;SDS011;9271;48.590;8.866;2022-10-16T03:01:13;3.37;;;2.20;;
18290;SDS011;9271;48.590;8.866;2022-10-16T03:03:41;2.60;;;2.37;;
18290;SDS011;9271;48.590;8.866;2022-10-16T03:06:09;3.47;;;2.40;;
18290;SDS011;9271;48.590;8.866;2022-10-16T03:08:36;2.27;;;2.07;;
18290;SDS011;9271;48.590;8.866;2022-10-16T03:11:03;2.60;;;2.33;;
18290;SDS011;9271;48.590;8.866;2022-10-16T03:13:30;2.63;;;1.93;;
18290;SDS011;9271;48.590;8.866;2022-10-16T03:15:57;4.70;;;2.23;;
18290;SDS011;9271;48.590;8.866;2022-10-16T03:18:23;2.80;;;2.20;;
18290;SDS011;9271;48.590;8.866;2022-10-16T03:20:50;1.97;;;1.83;;
18290;SDS011;9271;48.590;8.866;2022-10-16T03:23:18;3.30;;;1.90;;
18290;SDS011;9271;48.590;8.866;2022-10-16T03:25:45;4.30;;;1.93;;
18290;SDS011;9271;48.590;8.866;2022-10-16T03:28:11;3.27;;;2.00;;
18290;SDS011;9271;48.590;8.866;2022-10-16T03:30:38;2.87;;;2.17;;
18290;SDS011;9271;48.590;8.866;2022-10-16T03:33:05;2.67;;;2.00;;
18290;SDS011;9271;48.590;8.866;2022-10-16T03:35:32;2.37;;;2.17;;
18290;SDS011;9271;48.590;8.866;2022-10-16T03:37:59;2.50;;;2.00;;
18290;SDS011;9271;48.590;8.866;2022-10-16T03:40:27;2.23;;;2.07;;
18290;SDS011;9271;48.590;8.866;2022-10-16T03:42:56;4.13;;;2.40;;
18290;SDS011;9271;48.590;8.866;2022-10-16T03:45:23;1.90;;;1.80;;
18290;SDS011;9271;48.590;8.866;2022-10-16T03:47:50;2.10;;;2.00;;
18290;SDS011;9271;48.590;8.866;2022-10-16T03:50:16;2.93;;;2.20;;
18290;SDS011;9271;48.590;8.866;2022-10-16T03:52:43;2.13;;;2.03;;
18290;SDS011;9271;48.590;8.866;2022-10-16T03:55:10;2.40;;;2.10;;
18290;SDS011;9271;48.590;8.866;2022-10-16T03:57:38;2.60;;;2.40;;
18290;SDS011;9271;48.590;8.866;2022-10-16T04:00:05;2.37;;;2.13;;
18290;SDS011;9271;48.590;8.866;2022-10-16T04:02:32;2.60;;;2.10;;
18290;SDS011;9271;48.590;8.866;2022-10-16T04:04:59;2.93;;;2.73;;
18290;SDS011;9271;48.590;8.866;2022-10-16T04:07:26;2.70;;;2.50;;
18290;SDS011;9271;48.590;8.866;2022-10-16T04:09:53;2.50;;;2.40;;
18290;SDS011;9271;48.590;8.866;2022-10-16T04:12:20;3.10;;;2.10;;
18290;SDS011;9271;48.590;8.866;2022-10-16T04:14:48;3.47;;;1.97;;
18290;SDS011;9271;48.590;8.866;2022-10-16T04:17:15;2.87;;;2.17;;
18290;SDS011;9271;48.590;8.866;2022-10-16T04:19:42;5.80;;;1.90;;
18290;SDS011;9271;48.590;8.866;2022-10-16T04:22:09;2.00;;;1.90;;
18290;SDS011;9271;48.590;8.866;2022-10-16T04:24:35;4.03;;;2.10;;
18290;SDS011;9271;48.590;8.866;2022-10-16T04:27:02;3.33;;;2.10;;
18290;SDS011;9271;48.590;8.866;2022-10-16T04:29:29;3.07;;;1.83;;
18290;SDS011;9271;48.590;8.866;2022-10-16T04:31:57;3.60;;;1.93;;
18290;SDS011;9271;48.590;8.866;2022-10-16T04:34:24;3.47;;;1.90;;
18290;SDS011;9271;48.590;8.866;2022-10-16T04:36:50;4.87;;;1.93;;
18290;SDS011;9271;48.590;8.866;2022-10-16T04:39:17;4.63;;;2.03;;
18290;SDS011;9271;48.590;8.866;2022-10-16T04:41:44;2.47;;;1.87;;
18290;SDS011;9271;48.590;8.866;2022-10-16T04:44:11;2.10;;;1.90;;
18290;SDS011;9271;48.590;8.866;2022-10-16T04:46:37;2.13;;;1.83;;
18290;SDS011;9271;48.590;8.866;2022-10-16T04:49:05;1.87;;;1.77;;
18290;SDS011;9271;48.590;8.866;2022-10-16T04:51:32;1.87;;;1.77;;
18290;SDS011;9271;48.590;8.866;2022-10-16T04:53:59;5.67;;;2.50;;
18290;SDS011;9271;48.590;8.866;2022-10-16T04:56:25;2.10;;;2.00;;
18290;SDS011;9271;48.590;8.866;2022-10-16T04:58:52;3.33;;;1.80;;
18290;SDS011;9271;48.590;8.866;2022-10-16T05:01:19;3.20;;;2.00;;
18290;SDS011;9271;48.590;8.866;2022-10-16T05:03:46;5.20;;;1.90;;
18290;SDS011;9271;48.590;8.866;2022-10-16T05:06:14;2.00;;;1.90;;
18290;SDS011;9271;48.590;8.866;2022-10-16T05:08:40;2.00;;;1.80;;
18290;SDS011;9271;48.590;8.866;2022-10-16T05:11:07;2.23;;;2.00;;
18290;SDS011;9271;48.590;8.866;2022-10-16T05:13:34;1.90;;;1.80;;
18290;SDS011;9271;48.590;8.866;2022-10-16T05:16:00;2.00;;;1.90;;
18290;SDS011;9271;48.590;8.866;2022-10-16T05:18:27;2.73;;;1.80;;
18290;SDS011;9271;48.590;8.866;2022-10-16T05:20:54;4.80;;;2.00;;
18290;SDS011;9271;48.590;8.866;2022-10-16T05:23:22;4.00;;;2.00;;
18290;SDS011;9271;48.590;8.866;2022-10-16T05:25:52;3.17;;;2.03;;
18290;SDS011;9271;48.590;8.866;2022-10-16T05:28:20;2.67;;;1.90;;
18290;SDS011;9271;48.590;8.866;2022-10-16T05:30:46;4.03;;;2.10;;
18290;SDS011;9271;48.590;8.866;2022-10-16T05:33:13;3.40;;;3.13;;
18290;SDS011;9271;48.590;8.866;2022-10-16T05:35:40;4.40;;;3.30;;
18290;SDS011;9271;48.590;8.866;2022-10-16T05:38:07;3.67;;;2.77;;
18290;SDS011;9271;48.590;8.866;2022-10-16T05:40:35;2.80;;;2.60;;
18290;SDS011;9271;48.590;8.866;2022-10-16T05:43:01;3.40;;;3.10;;
18290;SDS011;9271;48.590;8.866;2022-10-16T05:45:28;4.00;;;2.63;;
18290;SDS011;9271;48.590;8.866;2022-10-16T05:47:55;2.63;;;2.43;;
18290;SDS011;9271;48.590;8.866;2022-10-16T05:50:21;2.67;;;2.47;;
18290;SDS011;9271;48.590;8.866;2022-10-16T05:52:48;2.70;;;2.40;;
18290;SDS011;9271;48.590;8.866;2022-10-16T05:55:15;2.90;;;2.70;;
18290;SDS011;9271;48.590;8.866;2022-10-16T05:57:43;2.60;;;2.40;;
18290;SDS011;9271;48.590;8.866;2022-10-16T06:00:10;3.40;;;2.77;;
18290;SDS011;9271;48.590;8.866;2022-10-16T06:02:37;2.30;;;2.20;;
18290;SDS011;9271;48.590;8.866;2022-10-16T06:05:04;2.80;;;2.60;;
18290;SDS011;9271;48.590;8.866;2022-10-16T06:07:33;3.97;;;2.50;;
18290;SDS011;9271;48.590;8.866;2022-10-16T06:10:00;3.47;;;2.63;;
18290;SDS011;9271;48.590;8.866;2022-10-16T06:12:27;2.37;;;2.27;;
18290;SDS011;9271;48.590;8.866;2022-10-16T06:14:55;4.40;;;2.57;;
18290;SDS011;9271;48.590;8.866;2022-10-16T06:17:22;2.43;;;2.23;;
18290;SDS011;9271;48.590;8.866;2022-10-16T06:19:49;1.80;;;1.70;;
18290;SDS011;9271;48.590;8.866;2022-10-16T06:22:15;6.77;;;3.33;;
18290;SDS011;9271;48.590;8.866;2022-10-16T06:24:42;4.00;;;2.97;;
18290;SDS011;9271;48.590;8.866;2022-10-16T06:27:09;2.47;;;2.27;;
18290;SDS011;9271;48.590;8.866;2022-10-16T06:29:36;2.87;;;2.40;;
18290;SDS011;9271;48.590;8.866;2022-10-16T06:32:04;2.87;;;2.40;;
18290;SDS011;9271;48.590;8.866;2022-10-16T06:34:30;2.93;;;2.73;;
18290;SDS011;9271;48.590;8.866;2022-10-16T06:36:57;2.87;;;2.67;;
18290;SDS011;9271;48.590;8.866;2022-10-16T06:39:24;2.60;;;2.40;;
18290;SDS011;9271;48.590;8.866;2022-10-16T06:41:50;3.10;;;2.90;;
18290;SDS011;9271;48.590;8.866;2022-10-16T06:44:17;3.00;;;2.50;;
18290;SDS011;9271;48.590;8.866;2022-10-16T06:46:44;2.00;;;1.90;;
18290;SDS011;9271;48.590;8.866;2022-10-16T06:49:12;2.17;;;1.97;;
18290;SDS011;9271;48.590;8.866;2022-10-16T06:51:40;1.80;;;1.70;;
18290;SDS011;9271;48.590;8.866;2022-10-16T06:54:07;3.83;;;2.10;;
18290;SDS011;9271;48.590;8.866;2022-10-16T06:56:34;2.10;;;2.00;;
18290;SDS011;9271;48.590;8.866;2022-10-16T06:59:01;1.60;;;1.50;;
18290;SDS011;9271;48.590;8.866;2022-10-16T07:01:28;3.87;;;1.93;;
18290;SDS011;9271;48.590;8.866;2022-10-16T07:03:55;1.80;;;1.70;;
18290;SDS011;9271;48.590;8.866;2022-10-16T07:06:24;1.80;;;1.70;;
18290;SDS011;9271;48.590;8.866;2022-10-16T07:08:52;2.13;;;1.80;;
18290;SDS011;9271;48.590;8.866;2022-10-16T07:11:20;2.77;;;1.97;;
18290;SDS011;9271;48.590;8.866;2022-10-16T07:13:48;1.70;;;1.60;;
18290;SDS011;9271;48.590;8.866;2022-10-16T07:16:16;1.70;;;1.60;;
18290;SDS011;9271;48.590;8.866;2022-10-16T07:18:44;2.43;;;1.63;;
18290;SDS011;9271;48.590;8.866;2022-10-16T07:21:14;5.63;;;1.73;;
18290;SDS011;9271;48.590;8.866;2022-10-16T07:23:43;2.40;;;1.53;;
18290;SDS011;9271;48.590;8.866;2022-10-16T07:26:10;2.20;;;1.80;;
18290;SDS011;9271;48.590;8.866;2022-10-16T07:28:37;2.03;;;1.70;;
18290;SDS011;9271;48.590;8.866;2022-10-16T07:31:05;3.77;;;1.70;;
18290;SDS011;9271;48.590;8.866;2022-10-16T07:33:33;2.07;;;1.70;;
18290;SDS011;9271;48.590;8.866;2022-10-16T07:36:01;1.67;;;1.57;;
18290;SDS011;9271;48.590;8.866;2022-10-16T07:38:28;2.40;;;1.83;;
18290;SDS011;9271;48.590;8.866;2022-10-16T07:40:57;1.70;;;1.37;;
18290;SDS011;9271;48.590;8.866;2022-10-16T07:43:24;2.00;;;1.67;;
18290;SDS011;9271;48.590;8.866;2022-10-16T07:45:51;1.70;;;1.60;;
18290;SDS011;9271;48.590;8.866;2022-10-16T07:48:18;2.13;;;1.50;;
18290;SDS011;9271;48.590;8.866;2022-10-16T07:50:45;2.13;;;1.87;;
18290;SDS011;9271;48.590;8.866;2022-10-16T07:53:12;2.57;;;2.20;;
18290;SDS011;9271;48.590;8.866;2022-10-16T07:55:39;2.33;;;1.73;;
18290;SDS011;9271;48.590;8.866;2022-10-16T07:58:07;3.27;;;1.90;;
18290;SDS011;9271;48.590;8.866;2022-10-16T08:00:35;4.33;;;2.10;;
18290;SDS011;9271;48.590;8.866;2022-10-16T08:03:02;2.17;;;2.00;;
18290;SDS011;9271;48.590;8.866;2022-10-16T08:05:30;2.07;;;1.70;;
18290;SDS011;9271;48.590;8.866;2022-10-16T08:07:58;2.07;;;1.93;;
18290;SDS011;9271;48.590;8.866;2022-10-16T08:10:26;2.37;;;1.80;;
18290;SDS011;9271;48.590;8.866;2022-10-16T08:12:54;2.53;;;1.57;;
18290;SDS011;9271;48.590;8.866;2022-10-16T08:15:22;3.43;;;1.90;;
18290;SDS011;9271;48.590;8.866;2022-10-16T08:17:55;2.87;;;1.90;;
18290;SDS011;9271;48.590;8.866;2022-10-16T08:20:23;3.93;;;1.80;;
18290;SDS011;9271;48.590;8.866;2022-10-16T08:22:50;3.33;;;1.93;;
18290;SDS011;9271;48.590;8.866;2022-10-16T08:25:16;2.10;;;2.00;;
18290;SDS011;9271;48.590;8.866;2022-10-16T08:27:43;2.47;;;1.83;;
18290;SDS011;9271;48.590;8.866;2022-10-16T08:30:10;1.50;;;1.40;;
18290;SDS011;9271;48.590;8.866;2022-10-16T08:32:39;2.20;;;2.00;;
18290;SDS011;9271;48.590;8.866;2022-10-16T08:35:07;1.90;;;1.80;;
18290;SDS011;9271;48.590;8.866;2022-10-16T08:37:34;2.87;;;1.80;;
18290;SDS011;9271;48.590;8.866;2022-10-16T08:40:01;5.13;;;1.83;;
18290;SDS011;9271;48.590;8.866;2022-10-16T08:45:30;2.83;;;1.77;;
18290;SDS011;9271;48.590;8.866;2022-10-16T08:48:15;3.80;;;1.80;;
18290;SDS011;9271;48.590;8.866;2022-10-16T08:50:46;5.63;;;1.93;;
18290;SDS011;9271;48.590;8.866;2022-10-16T08:53:16;2.67;;;1.87;;
18290;SDS011;9271;48.590;8.866;2022-10-16T08:55:49;2.87;;;2.10;;
18290;SDS011;9271;48.590;8.866;2022-10-16T08:58:18;2.73;;;1.97;;
18290;SDS011;9271;48.590;8.866;2022-10-16T09:00:46;8.37;;;2.10;;
18290;SDS011;9271;48.590;8.866;2022-10-16T09:03:22;3.43;;;2.23;;
18290;SDS011;9271;48.590;8.866;2022-10-16T09:06:10;2.87;;;2.00;;
18290;SDS011;9271;48.590;8.866;2022-10-16T09:08:48;2.07;;;1.87;;
18290;SDS011;9271;48.590;8.866;2022-10-16T09:11:23;4.03;;;1.50;;
18290;SDS011;9271;48.590;8.866;2022-10-16T09:14:00;2.63;;;1.57;;
18290;SDS011;9271;48.590;8.866;2022-10-16T09:16:34;2.07;;;1.90;;
18290;SDS011;9271;48.590;8.866;2022-10-16T09:19:09;2.47;;;2.00;;
18290;SDS011;9271;48.590;8.866;2022-10-16T09:21:44;6.27;;;2.00;;
18290;SDS011;9271;48.590;8.866;2022-10-16T09:24:13;2.17;;;1.60;;
18290;SDS011;9271;48.590;8.866;2022-10-16T09:26:41;3.40;;;1.50;;
18290;SDS011;9271;48.590;8.866;2022-10-16T09:29:09;2.73;;;1.67;;
18290;SDS011;9271;48.590;8.866;2022-10-16T09:31:37;4.33;;;1.90;;
18290;SDS011;9271;48.590;8.866;2022-10-16T09:34:04;4.10;;;1.80;;
18290;SDS011;9271;48.590;8.866;2022-10-16T09:36:39;3.60;;;1.53;;
18290;SDS011;9271;48.590;8.866;2022-10-16T09:39:09;2.63;;;1.70;;
18290;SDS011;9271;48.590;8.866;2022-10-16T09:41:37;2.30;;;1.60;;
18290;SDS011;9271;48.590;8.866;2022-10-16T09:44:14;2.97;;;1.85;;
18290;SDS011;9271;48.590;8.866;2022-10-16T09:46:45;1.60;;;1.48;;
18290;SDS011;9271;48.590;8.866;2022-10-16T09:49:21;5.32;;;1.50;;
18290;SDS011;9271;48.590;8.866;2022-10-16T09:51:49;2.90;;;2.13;;
18290;SDS011;9271;48.590;8.866;2022-10-16T09:54:16;1.80;;;1.70;;
18290;SDS011;9271;48.590;8.866;2022-10-16T09:56:44;5.70;;;3.70;;
18290;SDS011;9271;48.590;8.866;2022-10-16T09:59:17;5.38;;;2.70;;
18290;SDS011;9271;48.590;8.866;2022-10-16T10:01:45;4.03;;;2.30;;
18290;SDS011;9271;48.590;8.866;2022-10-16T10:04:14;6.82;;;1.70;;
18290;SDS011;9271;48.590;8.866;2022-10-16T10:06:43;3.10;;;1.52;;
18290;SDS011;9271;48.590;8.866;2022-10-16T10:09:15;2.23;;;1.60;;
18290;SDS011;9271;48.590;8.866;2022-10-16T10:11:47;1.47;;;1.10;;
18290;SDS011;9271;48.590;8.866;2022-10-16T10:14:20;2.05;;;1.30;;
18290;SDS011;9271;48.590;8.866;2022-10-16T10:16:49;4.72;;;4.30;;
18290;SDS011;9271;48.590;8.866;2022-10-16T10:19:18;1.63;;;1.50;;
18290;SDS011;9271;48.590;8.866;2022-10-16T10:21:47;1.65;;;1.48;;
18290;SDS011;9271;48.590;8.866;2022-10-16T10:24:15;3.40;;;1.33;;
18290;SDS011;9271;48.590;8.866;2022-10-16T10:26:46;2.28;;;1.38;;
18290;SDS011;9271;48.590;8.866;2022-10-16T10:29:28;3.58;;;1.90;;
18290;SDS011;9271;48.590;8.866;2022-10-16T10:32:06;3.05;;;1.20;;
18290;SDS011;9271;48.590;8.866;2022-10-16T10:34:51;2.33;;;1.30;;
18290;SDS011;9271;48.590;8.866;2022-10-16T10:37:36;3.10;;;1.10;;
18290;SDS011;9271;48.590;8.866;2022-10-16T10:40:21;2.33;;;1.02;;
18290;SDS011;9271;48.590;8.866;2022-10-16T10:42:56;3.20;;;1.35;;
18290;SDS011;9271;48.590;8.866;2022-10-16T10:45:34;1.80;;;1.20;;
18290;SDS011;9271;48.590;8.866;2022-10-16T10:48:11;1.88;;;1.20;;
18290;SDS011;9271;48.590;8.866;2022-10-16T10:50:52;3.00;;;1.17;;
18290;SDS011;9271;48.590;8.866;2022-10-16T10:53:28;2.22;;;1.30;;
18290;SDS011;9271;48.590;8.866;2022-10-16T10:56:06;2.00;;;1.13;;
18290;SDS011;9271;48.590;8.866;2022-10-16T10:58:49;3.65;;;1.65;;
18290;SDS011;9271;48.590;8.866;2022-10-16T11:01:33;1.58;;;1.40;;
18290;SDS011;9271;48.590;8.866;2022-10-16T11:07:00;2.13;;;1.50;;
18290;SDS011;9271;48.590;8.866;2022-10-16T11:09:32;2.28;;;1.60;;
18290;SDS011;9271;48.590;8.866;2022-10-16T11:12:05;1.75;;;1.30;;
18290;SDS011;9271;48.590;8.866;2022-10-16T11:14:38;4.13;;;1.50;;
18290;SDS011;9271;48.590;8.866;2022-10-16T11:17:10;1.40;;;1.30;;
18290;SDS011;9271;48.590;8.866;2022-10-16T11:19:40;2.65;;;1.60;;
18290;SDS011;9271;48.590;8.866;2022-10-16T11:22:13;1.77;;;1.40;;
18290;SDS011;9271;48.590;8.866;2022-10-16T11:24:46;3.47;;;1.45;;
18290;SDS011;9271;48.590;8.866;2022-10-16T11:27:19;4.10;;;1.23;;
18290;SDS011;9271;48.590;8.866;2022-10-16T11:29:51;1.40;;;1.30;;
18290;SDS011;9271;48.590;8.866;2022-10-16T11:32:25;1.67;;;1.30;;
18290;SDS011;9271;48.590;8.866;2022-10-16T11:34:57;4.65;;;1.30;;
18290;SDS011;9271;48.590;8.866;2022-10-16T11:37:30;1.90;;;1.70;;
18290;SDS011;9271;48.590;8.866;2022-10-16T11:40:05;2.15;;;1.23;;
18290;SDS011;9271;48.590;8.866;2022-10-16T11:42:46;1.75;;;1.10;;
18290;SDS011;9271;48.590;8.866;2022-10-16T11:45:23;2.03;;;1.30;;
18290;SDS011;9271;48.590;8.866;2022-10-16T11:47:57;1.52;;;1.08;;
18290;SDS011;9271;48.590;8.866;2022-10-16T11:50:29;1.85;;;1.20;;
18290;SDS011;9271;48.590;8.866;2022-10-16T11:53:01;1.48;;;1.30;;
18290;SDS011;9271;48.590;8.866;2022-10-16T11:55:37;1.90;;;1.20;;
18290;SDS011;9271;48.590;8.866;2022-10-16T11:58:05;1.40;;;1.20;;
18290;SDS011;9271;48.590;8.866;2022-10-16T12:00:37;3.50;;;1.30;;
18290;SDS011;9271;48.590;8.866;2022-10-16T12:03:09;1.90;;;1.30;;
18290;SDS011;9271;48.590;8.866;2022-10-16T12:05:50;3.10;;;1.30;;
18290;SDS011;9271;48.590;8.866;2022-10-16T12:08:24;2.75;;;1.40;;
18290;SDS011;9271;48.590;8.866;2022-10-16T12:10:53;1.55;;;1.38;;
18290;SDS011;9271;48.590;8.866;2022-10-16T12:13:33;1.40;;;1.40;;
18290;SDS011;9271;48.590;8.866;2022-10-16T12:16:04;4.72;;;1.45;;
18290;SDS011;9271;48.590;8.866;2022-10-16T12:18:48;1.40;;;1.30;;
18290;SDS011;9271;48.590;8.866;2022-10-16T12:21:16;1.70;;;1.42;;
18290;SDS011;9271;48.590;8.866;2022-10-16T12:23:47;1.13;;;1.13;;
18290;SDS011;9271;48.590;8.866;2022-10-16T12:26:24;2.25;;;1.30;;
18290;SDS011;9271;48.590;8.866;2022-10-16T12:28:53;2.78;;;1.42;;
18290;SDS011;9271;48.590;8.866;2022-10-16T12:31:20;1.58;;;1.20;;
18290;SDS011;9271;48.590;8.866;2022-10-16T12:33:57;1.83;;;1.10;;
18290;SDS011;9271;48.590;8.866;2022-10-16T12:36:26;1.73;;;1.35;;
18290;SDS011;9271;48.590;8.866;2022-10-16T12:38:55;3.33;;;1.38;;
18290;SDS011;9271;48.590;8.866;2022-10-16T12:41:27;1.33;;;1.23;;
18290;SDS011;9271;48.590;8.866;2022-10-16T12:43:55;2.45;;;1.30;;
18290;SDS011;9271;48.590;8.866;2022-10-16T12:46:24;2.28;;;1.20;;
18290;SDS011;9271;48.590;8.866;2022-10-16T12:49:05;3.38;;;1.45;;
18290;SDS011;9271;48.590;8.866;2022-10-16T12:51:46;1.45;;;1.35;;
18290;SDS011;9271;48.590;8.866;2022-10-16T12:54:13;6.32;;;1.55;;
18290;SDS011;9271;48.590;8.866;2022-10-16T12:56:46;4.40;;;1.60;;
18290;SDS011;9271;48.590;8.866;2022-10-16T12:59:24;2.78;;;1.40;;
18290;SDS011;9271;48.590;8.866;2022-10-16T13:02:08;1.50;;;1.40;;
18290;SDS011;9271;48.590;8.866;2022-10-16T13:05:02;2.08;;;1.42;;
18290;SDS011;9271;48.590;8.866;2022-10-16T13:07:44;4.13;;;1.40;;
18290;SDS011;9271;48.590;8.866;2022-10-16T13:10:23;4.82;;;1.52;;
18290;SDS011;9271;48.590;8.866;2022-10-16T13:13:00;2.63;;;1.63;;
18290;SDS011;9271;48.590;8.866;2022-10-16T13:15:41;1.60;;;1.50;;
18290;SDS011;9271;48.590;8.866;2022-10-16T13:18:21;3.45;;;1.30;;
18290;SDS011;9271;48.590;8.866;2022-10-16T13:20:56;3.20;;;1.48;;
18290;SDS011;9271;48.590;8.866;2022-10-16T13:23:36;4.45;;;1.40;;
18290;SDS011;9271;48.590;8.866;2022-10-16T13:26:13;4.72;;;1.70;;
18290;SDS011;9271;48.590;8.866;2022-10-16T13:28:49;1.75;;;1.40;;
18290;SDS011;9271;48.590;8.866;2022-10-16T13:31:17;2.20;;;1.50;;
18290;SDS011;9271;48.590;8.866;2022-10-16T13:33:46;3.10;;;1.70;;
18290;SDS011;9271;48.590;8.866;2022-10-16T13:36:19;2.25;;;1.70;;
18290;SDS011;9271;48.590;8.866;2022-10-16T13:38:47;1.98;;;1.63;;
18290;SDS011;9271;48.590;8.866;2022-10-16T13:41:14;4.45;;;1.83;;
18290;SDS011;9271;48.590;8.866;2022-10-16T13:43:43;4.32;;;1.80;;
18290;SDS011;9271;48.590;8.866;2022-10-16T13:46:14;3.08;;;1.55;;
18290;SDS011;9271;48.590;8.866;2022-10-16T13:48:42;1.77;;;1.67;;
18290;SDS011;9271;48.590;8.866;2022-10-16T13:51:13;2.93;;;1.80;;
18290;SDS011;9271;48.590;8.866;2022-10-16T13:53:41;3.93;;;1.70;;
18290;SDS011;9271;48.590;8.866;2022-10-16T13:56:10;1.60;;;1.50;;
18290;SDS011;9271;48.590;8.866;2022-10-16T13:58:38;3.60;;;1.90;;
18290;SDS011;9271;48.590;8.866;2022-10-16T14:01:06;1.30;;;1.30;;
18290;SDS011;9271;48.590;8.866;2022-10-16T14:03:44;2.90;;;1.63;;
18290;SDS011;9271;48.590;8.866;2022-10-16T14:06:12;1.60;;;1.50;;
18290;SDS011;9271;48.590;8.866;2022-10-16T14:08:43;3.10;;;1.50;;
18290;SDS011;9271;48.590;8.866;2022-10-16T14:11:11;2.13;;;1.50;;
18290;SDS011;9271;48.590;8.866;2022-10-16T14:13:39;3.03;;;1.83;;
18290;SDS011;9271;48.590;8.866;2022-10-16T14:16:10;2.50;;;1.60;;
18290;SDS011;9271;48.590;8.866;2022-10-16T14:18:45;1.83;;;1.73;;
18290;SDS011;9271;48.590;8.866;2022-10-16T14:21:17;3.80;;;1.73;;
18290;SDS011;9271;48.590;8.866;2022-10-16T14:23:44;1.75;;;1.65;;
18290;SDS011;9271;48.590;8.866;2022-10-16T14:26:12;2.72;;;1.55;;
18290;SDS011;9271;48.590;8.866;2022-10-16T14:28:40;2.03;;;1.60;;
18290;SDS011;9271;48.590;8.866;2022-10-16T14:33:56;2.72;;;1.73;;
18290;SDS011;9271;48.590;8.866;2022-10-16T14:36:23;3.35;;;1.63;;
18290;SDS011;9271;48.590;8.866;2022-10-16T14:38:55;3.00;;;1.70;;
18290;SDS011;9271;48.590;8.866;2022-10-16T14:41:25;2.88;;;1.40;;
18290;SDS011;9271;48.590;8.866;2022-10-16T14:43:53;3.22;;;1.40;;
18290;SDS011;9271;48.590;8.866;2022-10-16T14:46:22;1.50;;;1.33;;
18290;SDS011;9271;48.590;8.866;2022-10-16T14:48:58;3.83;;;1.65;;
18290;SDS011;9271;48.590;8.866;2022-10-16T14:51:28;3.83;;;1.50;;
18290;SDS011;9271;48.590;8.866;2022-10-16T14:53:55;1.70;;;1.60;;
18290;SDS011;9271;48.590;8.866;2022-10-16T14:56:22;3.20;;;1.50;;
18290;SDS011;9271;48.590;8.866;2022-10-16T14:58:51;3.28;;;1.55;;
18290;SDS011;9271;48.590;8.866;2022-10-16T15:01:18;1.77;;;1.65;;
18290;SDS011;9271;48.590;8.866;2022-10-16T15:03:45;2.15;;;1.60;;
18290;SDS011;9271;48.590;8.866;2022-10-16T15:06:14;5.45;;;1.60;;
18290;SDS011;9271;48.590;8.866;2022-10-16T15:08:42;4.10;;;1.60;;
18290;SDS011;9271;48.590;8.866;2022-10-16T15:11:09;1.75;;;1.60;;
18290;SDS011;9271;48.590;8.866;2022-10-16T15:13:38;1.65;;;1.55;;
18290;SDS011;9271;48.590;8.866;2022-10-16T15:16:07;3.17;;;1.83;;
18290;SDS011;9271;48.590;8.866;2022-10-16T15:18:36;2.95;;;2.20;;
18290;SDS011;9271;48.590;8.866;2022-10-16T15:21:03;3.63;;;2.38;;
18290;SDS011;9271;48.590;8.866;2022-10-16T15:23:31;2.70;;;1.75;;
18290;SDS011;9271;48.590;8.866;2022-10-16T15:25:58;2.35;;;2.10;;